sensor_id;sensor_type;location;lat;lon;timestamp;pressure;altitude;pressure_sealevel;temperature;humidity
16595;BME280;8410;52.532;13.336;2024-01-15T00:01:42;98886.69;;;9.97;63.71
16595;BME280;8410;52.532;13.336;2024-01-15T00:04:10;98878.47;;;10.81;61.91
16595;BME280;8410;52.532;13.336;2024-01-15T00:06:38;98872.91;;;10.02;62.14
16595;BME280;8410;52.532;13.336;2024-01-15T00:09:05;98873.84;;;9.36;64.38
16595;BME280;8410;52.532;13.336;2024-01-15T00:11:33;98869.16;;;10.23;63.67
16595;BME280;8410;52.532;13.336;2024-01-15T00:14:00;98866.53;;;10.28;63.46
16595;BME280;8410;52.532;13.336;2024-01-15T00:16:30;98859.63;;;9.74;64.46
16595;BME280;8410;52.532;13.336;2024-01-15T00:18:58;98852.00;;;11.18;61.29
16595;BME280;8410;52.532;13.336;2024-01-15T00:21:26;98848.13;;;9.39;65.55
16595;BME280;8410;52.532;13.336;2024-01-15T00:23:53;98849.84;;;8.63;66.11
16595;BME280;8410;52.532;13.336;2024-01-15T00:26:21;98847.53;;;8.37;68.60
16595;BME280;8410;52.532;13.336;2024-01-15T00:28:48;98844.03;;;9.86;65.87
16595;BME280;8410;52.532;13.336;2024-01-15T00:31:16;98826.75;;;10.47;63.56
16595;BME280;8410;52.532;13.336;2024-01-15T00:33:45;98833.31;;;10.14;62.73
16595;BME280;8410;52.532;13.336;2024-01-15T00:36:13;98813.03;;;9.96;63.23
16595;BME280;8410;52.532;13.336;2024-01-15T00:38:41;98807.59;;;8.96;65.44
16595;BME280;8410;52.532;13.336;2024-01-15T00:41:08;98816.91;;;9.67;65.49
16595;BME280;8410;52.532;13.336;2024-01-15T00:43:36;98820.75;;;9.94;61.43
16595;BME280;8410;52.532;13.336;2024-01-15T00:46:04;98817.34;;;9.35;65.99
16595;BME280;8410;52.532;13.336;2024-01-15T00:48:31;98812.69;;;8.99;65.20
16595;BME280;8410;52.532;13.336;2024-01-15T00:51:00;98802.00;;;9.30;nan
16595;BME280;8410;52.532;13.336;2024-01-15T00:53:28;98811.09;;;10.10;64.59
16595;BME280;8410;52.532;13.336;2024-01-15T00:55:55;98804.69;;;10.34;61.81
16595;BME280;8410;52.532;13.336;2024-01-15T00:58:23;98797.44;;;9.52;63.59
16595;BME280;8410;52.532;13.336;2024-01-15T01:00:50;98799.84;;;9.63;63.33
16595;BME280;8410;52.532;13.336;2024-01-15T01:03:18;98799.28;;;10.00;63.08
16595;BME280;8410;52.532;13.336;2024-01-15T01:05:46;98796.16;;;9.79;63.34
16595;BME280;8410;52.532;13.336;2024-01-15T01:08:17;98800.13;;;10.50;61.76
16595;BME280;8410;52.532;13.336;2024-01-15T01:10:45;98796.50;;;10.60;61.93
16595;BME280;8410;52.532;13.336;2024-01-15T01:13:12;98795.72;;;11.00;61.30
16595;BME280;8410;52.532;13.336;2024-01-15T01:15:40;98788.72;;;10.15;61.27
16595;BME280;8410;52.532;13.336;2024-01-15T01:18:07;98794.97;;;10.50;62.94
16595;BME280;8410;52.532;13.336;2024-01-15T01:20:35;98794.91;;;10.56;62.92
16595;BME280;8410;52.532;13.336;2024-01-15T01:23:03;98794.13;;;10.00;63.15
16595;BME280;8410;52.532;13.336;2024-01-15T01:25:32;98800.47;;;10.31;63.81
16595;BME280;8410;52.532;13.336;2024-01-15T01:28:00;98805.97;;;10.08;62.70
16595;BME280;8410;52.532;13.336;2024-01-15T01:30:27;98801.84;;;10.49;62.23
16595;BME280;8410;52.532;13.336;2024-01-15T01:32:55;98799.63;;;10.77;61.82
16595;BME280;8410;52.532;13.336;2024-01-15T01:35:22;98801.19;;;9.85;61.85
16595;BME280;8410;52.532;13.336;2024-01-15T01:37:50;98787.53;;;9.83;63.29
16595;BME280;8410;52.532;13.336;2024-01-15T01:40:17;98781.69;;;10.73;62.72
16595;BME280;8410;52.532;13.336;2024-01-15T01:42:47;98792.16;;;10.64;62.02
16595;BME280;8410;52.532;13.336;2024-01-15T01:45:15;98792.00;;;10.23;62.21
16595;BME280;8410;52.532;13.336;2024-01-15T01:47:43;98786.88;;;11.13;61.81
16595;BME280;8410;52.532;13.336;2024-01-15T01:50:11;98780.16;;;11.06;60.12
16595;BME280;8410;52.532;13.336;2024-01-15T01:52:40;98800.31;;;9.88;63.88
16595;BME280;8410;52.532;13.336;2024-01-15T01:55:09;98783.56;;;10.65;62.73
16595;BME280;8410;52.532;13.336;2024-01-15T01:57:37;98786.41;;;10.51;62.23
16595;BME280;8410;52.532;13.336;2024-01-15T02:00:08;98779.56;;;10.00;62.59
16595;BME280;8410;52.532;13.336;2024-01-15T02:02:35;98775.19;;;8.86;65.79
16595;BME280;8410;52.532;13.336;2024-01-15T02:05:04;98774.09;;;10.19;63.16
16595;BME280;8410;52.532;13.336;2024-01-15T02:07:34;98768.06;;;10.21;63.03
16595;BME280;8410;52.532;13.336;2024-01-15T02:10:02;98765.34;;;10.29;62.82
16595;BME280;8410;52.532;13.336;2024-01-15T02:12:30;98770.28;;;9.34;65.01
16595;BME280;8410;52.532;13.336;2024-01-15T02:14:57;98762.09;;;9.68;63.13
16595;BME280;8410;52.532;13.336;2024-01-15T02:17:26;98767.91;;;10.30;62.41
16595;BME280;8410;52.532;13.336;2024-01-15T02:19:53;98771.66;;;8.96;65.95
16595;BME280;8410;52.532;13.336;2024-01-15T02:22:21;98775.06;;;8.97;65.45
16595;BME280;8410;52.532;13.336;2024-01-15T02:24:50;98766.97;;;9.26;63.85
16595;BME280;8410;52.532;13.336;2024-01-15T02:27:19;98748.69;;;10.50;61.53
16595;BME280;8410;52.532;13.336;2024-01-15T02:29:48;98768.09;;;10.18;60.90
16595;BME280;8410;52.532;13.336;2024-01-15T02:32:16;98758.88;;;10.08;61.61
16595;BME280;8410;52.532;13.336;2024-01-15T02:34:43;98762.25;;;9.56;64.25
16595;BME280;8410;52.532;13.336;2024-01-15T02:37:11;98764.38;;;9.85;62.70
16595;BME280;8410;52.532;13.336;2024-01-15T02:39:39;98755.72;;;9.36;61.65
16595;BME280;8410;52.532;13.336;2024-01-15T02:42:08;98743.25;;;10.17;61.48
16595;BME280;8410;52.532;13.336;2024-01-15T02:44:35;98742.38;;;10.18;60.67
16595;BME280;8410;52.532;13.336;2024-01-15T02:47:03;98750.16;;;9.05;63.23
16595;BME280;8410;52.532;13.336;2024-01-15T02:49:31;98756.34;;;9.52;63.34
16595;BME280;8410;52.532;13.336;2024-01-15T02:51:59;98745.75;;;10.68;59.98
16595;BME280;8410;52.532;13.336;2024-01-15T02:54:26;98750.41;;;10.51;60.31
16595;BME280;8410;52.532;13.336;2024-01-15T02:56:54;98762.22;;;9.59;62.26
16595;BME280;8410;52.532;13.336;2024-01-15T02:59:23;98756.34;;;8.87;64.41
16595;BME280;8410;52.532;13.336;2024-01-15T03:01:50;98734.13;;;10.49;61.37
16595;BME280;8410;52.532;13.336;2024-01-15T03:04:18;98722.00;;;10.96;58.61
16595;BME280;8410;52.532;13.336;2024-01-15T03:06:45;98724.88;;;10.38;61.46
16595;BME280;8410;52.532;13.336;2024-01-15T03:09:13;98737.84;;;10.34;59.50
16595;BME280;8410;52.532;13.336;2024-01-15T03:11:40;98730.03;;;9.89;61.26
16595;BME280;8410;52.532;13.336;2024-01-15T03:14:09;98734.25;;;9.94;61.41
16595;BME280;8410;52.532;13.336;2024-01-15T03:16:37;98737.75;;;9.35;62.09
16595;BME280;8410;52.532;13.336;2024-01-15T03:19:05;98723.31;;;10.31;60.00
16595;BME280;8410;52.532;13.336;2024-01-15T03:21:32;98732.44;;;10.90;58.95
16595;BME280;8410;52.532;13.336;2024-01-15T03:24:00;98725.53;;;10.50;59.27
16595;BME280;8410;52.532;13.336;2024-01-15T03:26:27;98725.28;;;9.66;59.88
16595;BME280;8410;52.532;13.336;2024-01-15T03:28:55;98726.94;;;10.18;60.11
16595;BME280;8410;52.532;13.336;2024-01-15T03:31:23;98730.56;;;9.57;61.26
16595;BME280;8410;52.532;13.336;2024-01-15T03:33:52;98726.63;;;9.88;61.91
16595;BME280;8410;52.532;13.336;2024-01-15T03:36:19;98725.22;;;9.70;60.67
16595;BME280;8410;52.532;13.336;2024-01-15T03:38:47;98723.03;;;8.86;63.30
16595;BME280;8410;52.532;13.336;2024-01-15T03:41:15;98721.97;;;10.09;61.52
16595;BME280;8410;52.532;13.336;2024-01-15T03:43:42;98718.41;;;9.68;61.17
16595;BME280;8410;52.532;13.336;2024-01-15T03:46:10;98703.47;;;9.37;62.59
16595;BME280;8410;52.532;13.336;2024-01-15T03:48:37;98713.81;;;9.85;60.44
16595;BME280;8410;52.532;13.336;2024-01-15T03:51:06;98707.19;;;9.74;61.12
16595;BME280;8410;52.532;13.336;2024-01-15T03:53:34;98700.13;;;9.86;60.38
16595;BME280;8410;52.532;13.336;2024-01-15T03:56:01;98699.38;;;9.25;60.73
16595;BME280;8410;52.532;13.336;2024-01-15T03:58:29;98700.75;;;8.91;63.34
16595;BME280;8410;52.532;13.336;2024-01-15T04:00:56;98687.47;;;10.22;60.28
16595;BME280;8410;52.532;13.336;2024-01-15T04:03:24;98691.47;;;9.39;60.98
16595;BME280;8410;52.532;13.336;2024-01-15T04:05:52;98683.88;;;9.30;61.97
16595;BME280;8410;52.532;13.336;2024-01-15T04:08:20;98692.34;;;9.89;62.21
16595;BME280;8410;52.532;13.336;2024-01-15T04:10:48;98672.47;;;10.44;59.65
16595;BME280;8410;52.532;13.336;2024-01-15T04:13:16;98668.25;;;10.42;58.44
16595;BME280;8410;52.532;13.336;2024-01-15T04:15:43;98681.06;;;8.91;61.62
16595;BME280;8410;52.532;13.336;2024-01-15T04:18:11;98682.47;;;9.11;63.54
16595;BME280;8410;52.532;13.336;2024-01-15T04:20:38;98669.78;;;9.56;62.22
16595;BME280;8410;52.532;13.336;2024-01-15T04:23:06;98669.03;;;10.86;58.48
16595;BME280;8410;52.532;13.336;2024-01-15T04:25:35;98685.38;;;9.43;62.32
16595;BME280;8410;52.532;13.336;2024-01-15T04:28:03;98681.63;;;9.12;60.72
16595;BME280;8410;52.532;13.336;2024-01-15T04:30:30;98684.88;;;9.23;62.46
16595;BME280;8410;52.532;13.336;2024-01-15T04:32:58;98682.69;;;8.98;61.58
16595;BME280;8410;52.532;13.336;2024-01-15T04:35:26;98692.81;;;8.41;64.42
16595;BME280;8410;52.532;13.336;2024-01-15T04:37:53;98682.78;;;8.89;61.96
16595;BME280;8410;52.532;13.336;2024-01-15T04:40:21;98677.72;;;9.91;61.63
16595;BME280;8410;52.532;13.336;2024-01-15T04:42:50;98669.75;;;9.59;62.32
16595;BME280;8410;52.532;13.336;2024-01-15T04:45:17;98661.72;;;9.77;61.14
16595;BME280;8410;52.532;13.336;2024-01-15T04:47:46;98658.50;;;8.50;63.76
16595;BME280;8410;52.532;13.336;2024-01-15T04:50:15;98660.19;;;9.14;62.03
16595;BME280;8410;52.532;13.336;2024-01-15T04:52:43;98661.44;;;9.44;60.87
16595;BME280;8410;52.532;13.336;2024-01-15T04:55:11;98656.75;;;9.17;61.72
16595;BME280;8410;52.532;13.336;2024-01-15T04:57:39;98649.03;;;9.68;61.00
16595;BME280;8410;52.532;13.336;2024-01-15T05:00:10;98653.66;;;9.47;61.27
16595;BME280;8410;52.532;13.336;2024-01-15T05:02:39;98648.94;;;9.23;60.05
16595;BME280;8410;52.532;13.336;2024-01-15T05:05:07;98657.91;;;8.94;62.54
16595;BME280;8410;52.532;13.336;2024-01-15T05:07:35;98651.94;;;9.48;60.55
16595;BME280;8410;52.532;13.336;2024-01-15T05:10:03;98654.56;;;9.43;59.92
16595;BME280;8410;52.532;13.336;2024-01-15T05:12:30;98657.78;;;8.40;63.04
16595;BME280;8410;52.532;13.336;2024-01-15T05:14:58;98665.19;;;9.22;62.25
16595;BME280;8410;52.532;13.336;2024-01-15T05:17:27;98661.25;;;9.01;62.38
16595;BME280;8410;52.532;13.336;2024-01-15T05:19:54;98661.56;;;9.35;61.66
16595;BME280;8410;52.532;13.336;2024-01-15T05:22:22;98657.03;;;8.95;61.70
16595;BME280;8410;52.532;13.336;2024-01-15T05:24:51;98649.38;;;10.43;59.66
16595;BME280;8410;52.532;13.336;2024-01-15T05:27:19;98648.69;;;9.88;59.92
16595;BME280;8410;52.532;13.336;2024-01-15T05:29:47;98653.41;;;9.09;62.30
16595;BME280;8410;52.532;13.336;2024-01-15T05:32:14;98641.75;;;10.38;59.38
16595;BME280;8410;52.532;13.336;2024-01-15T05:34:43;98631.44;;;9.94;58.34
16595;BME280;8410;52.532;13.336;2024-01-15T05:37:11;98629.13;;;9.31;61.92
16595;BME280;8410;52.532;13.336;2024-01-15T05:39:38;98619.28;;;10.01;59.88
16595;BME280;8410;52.532;13.336;2024-01-15T05:42:07;98631.47;;;9.91;60.13
16595;BME280;8410;52.532;13.336;2024-01-15T05:44:34;98634.00;;;9.46;60.17
16595;BME280;8410;52.532;13.336;2024-01-15T05:47:02;98630.53;;;9.96;59.83
16595;BME280;8410;52.532;13.336;2024-01-15T05:49:30;98635.69;;;9.47;60.38
16595;BME280;8410;52.532;13.336;2024-01-15T05:52:00;98625.69;;;10.25;59.11
16595;BME280;8410;52.532;13.336;2024-01-15T05:54:27;98628.97;;;10.33;59.41
16595;BME280;8410;52.532;13.336;2024-01-15T05:56:55;98637.41;;;10.80;58.33
16595;BME280;8410;52.532;13.336;2024-01-15T05:59:23;98638.56;;;9.29;61.70
16595;BME280;8410;52.532;13.336;2024-01-15T06:01:51;98640.94;;;9.41;61.41
16595;BME280;8410;52.532;13.336;2024-01-15T06:04:19;98643.50;;;9.41;61.94
16595;BME280;8410;52.532;13.336;2024-01-15T06:06:47;98628.38;;;9.74;62.09
16595;BME280;8410;52.532;13.336;2024-01-15T06:09:16;98619.50;;;10.74;59.54
16595;BME280;8410;52.532;13.336;2024-01-15T06:11:43;98625.88;;;9.20;62.52
16595;BME280;8410;52.532;13.336;2024-01-15T06:14:11;98623.09;;;10.25;61.36
16595;BME280;8410;52.532;13.336;2024-01-15T06:16:39;98626.25;;;10.40;59.99
16595;BME280;8410;52.532;13.336;2024-01-15T06:19:07;98631.19;;;10.07;61.42
16595;BME280;8410;52.532;13.336;2024-01-15T06:21:34;98632.03;;;9.08;63.20
16595;BME280;8410;52.532;13.336;2024-01-15T06:24:02;98611.34;;;10.13;60.25
16595;BME280;8410;52.532;13.336;2024-01-15T06:26:31;98607.91;;;10.14;60.58
16595;BME280;8410;52.532;13.336;2024-01-15T06:28:59;98635.69;;;9.94;60.37
16595;BME280;8410;52.532;13.336;2024-01-15T06:31:26;98627.84;;;9.55;61.89
16595;BME280;8410;52.532;13.336;2024-01-15T06:33:55;98624.16;;;10.15;60.19
16595;BME280;8410;52.532;13.336;2024-01-15T06:36:23;98628.53;;;10.11;60.79
16595;BME280;8410;52.532;13.336;2024-01-15T06:38:50;98624.44;;;9.00;61.44
16595;BME280;8410;52.532;13.336;2024-01-15T06:41:18;98637.81;;;9.74;61.50
16595;BME280;8410;52.532;13.336;2024-01-15T06:43:46;98631.91;;;9.17;62.49
16595;BME280;8410;52.532;13.336;2024-01-15T06:46:19;98626.72;;;10.16;61.73
16595;BME280;8410;52.532;13.336;2024-01-15T06:48:47;98650.53;;;8.73;63.11
16595;BME280;8410;52.532;13.336;2024-01-15T06:51:15;98620.91;;;8.49;64.66
16595;BME280;8410;52.532;13.336;2024-01-15T06:53:43;98632.72;;;8.60;64.18
16595;BME280;8410;52.532;13.336;2024-01-15T06:56:11;98637.47;;;9.44;61.61
16595;BME280;8410;52.532;13.336;2024-01-15T06:58:38;98624.78;;;10.29;59.85
16595;BME280;8410;52.532;13.336;2024-01-15T07:01:07;98635.47;;;10.08;58.71
16595;BME280;8410;52.532;13.336;2024-01-15T07:03:35;98626.63;;;10.63;58.06
16595;BME280;8410;52.532;13.336;2024-01-15T07:06:03;98646.06;;;9.41;60.70
16595;BME280;8410;52.532;13.336;2024-01-15T07:08:31;98632.81;;;9.15;60.90
16595;BME280;8410;52.532;13.336;2024-01-15T07:10:58;98639.84;;;9.00;61.04
16595;BME280;8410;52.532;13.336;2024-01-15T07:13:26;98647.94;;;9.81;60.23
16595;BME280;8410;52.532;13.336;2024-01-15T07:15:53;98662.50;;;9.31;61.50
16595;BME280;8410;52.532;13.336;2024-01-15T07:18:22;98649.16;;;10.08;58.83
16595;BME280;8410;52.532;13.336;2024-01-15T07:20:50;98644.34;;;9.42;60.33
16595;BME280;8410;52.532;13.336;2024-01-15T07:23:18;98661.13;;;9.61;59.68
16595;BME280;8410;52.532;13.336;2024-01-15T07:25:45;98665.25;;;9.19;60.73
16595;BME280;8410;52.532;13.336;2024-01-15T07:28:13;98669.28;;;9.86;58.71
16595;BME280;8410;52.532;13.336;2024-01-15T07:30:40;98668.53;;;9.78;58.18
16595;BME280;8410;52.532;13.336;2024-01-15T07:33:08;98669.47;;;10.21;58.82
16595;BME280;8410;52.532;13.336;2024-01-15T07:35:37;98687.09;;;9.96;59.84
16595;BME280;8410;52.532;13.336;2024-01-15T07:38:05;98676.34;;;10.65;57.61
16595;BME280;8410;52.532;13.336;2024-01-15T07:40:32;98677.44;;;10.94;57.96
16595;BME280;8410;52.532;13.336;2024-01-15T07:43:00;98685.28;;;10.01;58.49
16595;BME280;8410;52.532;13.336;2024-01-15T07:45:27;98698.81;;;9.61;59.88
16595;BME280;8410;52.532;13.336;2024-01-15T07:47:55;98688.63;;;10.06;58.29
16595;BME280;8410;52.532;13.336;2024-01-15T07:50:23;98678.06;;;10.65;56.71
16595;BME280;8410;52.532;13.336;2024-01-15T07:52:51;98689.34;;;10.59;56.69
16595;BME280;8410;52.532;13.336;2024-01-15T07:55:19;98706.38;;;10.18;57.79
16595;BME280;8410;52.532;13.336;2024-01-15T07:57:47;98706.41;;;10.16;57.47
16595;BME280;8410;52.532;13.336;2024-01-15T08:00:27;98693.50;;;11.03;57.06
16595;BME280;8410;52.532;13.336;2024-01-15T08:02:55;98703.97;;;9.61;59.41
16595;BME280;8410;52.532;13.336;2024-01-15T08:05:23;98707.81;;;9.32;59.98
16595;BME280;8410;52.532;13.336;2024-01-15T08:07:52;98691.66;;;10.29;58.52
16595;BME280;8410;52.532;13.336;2024-01-15T08:10:24;98693.53;;;10.63;57.38
16595;BME280;8410;52.532;13.336;2024-01-15T08:12:51;98709.28;;;9.48;60.26
16595;BME280;8410;52.532;13.336;2024-01-15T08:15:19;98704.94;;;8.96;62.15
16595;BME280;8410;52.532;13.336;2024-01-15T08:17:47;98705.47;;;9.74;60.17
16595;BME280;8410;52.532;13.336;2024-01-15T08:20:15;98703.53;;;9.85;59.42
16595;BME280;8410;52.532;13.336;2024-01-15T08:22:43;98720.75;;;9.80;59.46
16595;BME280;8410;52.532;13.336;2024-01-15T08:25:12;98712.03;;;9.90;59.17
16595;BME280;8410;52.532;13.336;2024-01-15T08:27:39;98708.69;;;10.35;58.24
16595;BME280;8410;52.532;13.336;2024-01-15T08:30:08;98710.03;;;10.05;59.72
16595;BME280;8410;52.532;13.336;2024-01-15T08:32:37;98706.31;;;9.19;62.53
16595;BME280;8410;52.532;13.336;2024-01-15T08:35:08;98692.34;;;10.37;59.29
16595;BME280;8410;52.532;13.336;2024-01-15T08:37:37;98702.38;;;10.50;57.46
16595;BME280;8410;52.532;13.336;2024-01-15T08:40:05;98711.59;;;10.62;58.40
16595;BME280;8410;52.532;13.336;2024-01-15T08:42:34;98713.41;;;9.60;60.23
16595;BME280;8410;52.532;13.336;2024-01-15T08:45:03;98709.78;;;10.20;58.98
16595;BME280;8410;52.532;13.336;2024-01-15T08:47:30;98708.69;;;10.35;58.47
16595;BME280;8410;52.532;13.336;2024-01-15T08:49:58;98721.41;;;9.94;59.84
16595;BME280;8410;52.532;13.336;2024-01-15T08:52:26;98720.94;;;9.69;59.54
16595;BME280;8410;52.532;13.336;2024-01-15T08:54:54;98722.09;;;10.03;58.86
16595;BME280;8410;52.532;13.336;2024-01-15T08:57:21;98722.50;;;9.78;61.00
16595;BME280;8410;52.532;13.336;2024-01-15T08:59:51;98719.59;;;9.98;58.72
16595;BME280;8410;52.532;13.336;2024-01-15T09:02:21;98727.78;;;9.70;60.49
16595;BME280;8410;52.532;13.336;2024-01-15T09:04:48;98729.06;;;10.46;59.24
16595;BME280;8410;52.532;13.336;2024-01-15T09:07:16;98735.81;;;10.02;57.97
16595;BME280;8410;52.532;13.336;2024-01-15T09:09:44;98737.34;;;9.62;60.36
16595;BME280;8410;52.532;13.336;2024-01-15T09:12:11;98721.72;;;10.24;59.40
16595;BME280;8410;52.532;13.336;2024-01-15T09:14:42;98725.59;;;9.99;59.75
16595;BME280;8410;52.532;13.336;2024-01-15T09:17:10;98740.34;;;9.33;60.95
16595;BME280;8410;52.532;13.336;2024-01-15T09:19:38;98736.31;;;10.22;60.44
16595;BME280;8410;52.532;13.336;2024-01-15T09:22:06;98738.25;;;10.11;66.07
16595;BME280;8410;52.532;13.336;2024-01-15T09:24:34;98746.19;;;9.43;61.14
16595;BME280;8410;52.532;13.336;2024-01-15T09:27:01;98729.44;;;10.23;60.49
16595;BME280;8410;52.532;13.336;2024-01-15T09:29:29;98745.06;;;10.60;63.23
16595;BME280;8410;52.532;13.336;2024-01-15T09:31:57;98739.63;;;11.89;61.77
16595;BME280;8410;52.532;13.336;2024-01-15T09:34:26;98737.19;;;11.08;64.97
16595;BME280;8410;52.532;13.336;2024-01-15T09:36:54;98740.78;;;10.59;61.48
16595;BME280;8410;52.532;13.336;2024-01-15T09:39:21;98742.94;;;11.21;58.21
16595;BME280;8410;52.532;13.336;2024-01-15T09:41:49;98738.28;;;11.73;59.03
16595;BME280;8410;52.532;13.336;2024-01-15T09:44:17;98742.47;;;12.45;58.32
16595;BME280;8410;52.532;13.336;2024-01-15T09:46:45;98737.69;;;11.61;60.69
16595;BME280;8410;52.532;13.336;2024-01-15T09:49:16;98728.94;;;10.94;61.17
16595;BME280;8410;52.532;13.336;2024-01-15T09:51:45;98737.31;;;12.12;61.85
16595;BME280;8410;52.532;13.336;2024-01-15T09:54:28;98741.78;;;11.70;58.23
16595;BME280;8410;52.532;13.336;2024-01-15T09:56:55;98739.28;;;10.91;57.06
16595;BME280;8410;52.532;13.336;2024-01-15T09:59:24;98754.13;;;10.34;58.36
16595;BME280;8410;52.532;13.336;2024-01-15T10:01:52;98751.66;;;10.27;60.33
16595;BME280;8410;52.532;13.336;2024-01-15T10:04:21;98741.78;;;10.52;59.98
16595;BME280;8410;52.532;13.336;2024-01-15T10:06:51;98738.38;;;10.50;59.01
16595;BME280;8410;52.532;13.336;2024-01-15T10:09:19;98725.50;;;11.32;56.41
16595;BME280;8410;52.532;13.336;2024-01-15T10:11:47;98738.81;;;10.25;59.77
16595;BME280;8410;52.532;13.336;2024-01-15T10:14:14;98730.09;;;10.79;58.17
16595;BME280;8410;52.532;13.336;2024-01-15T10:16:42;98728.75;;;10.13;59.55
16595;BME280;8410;52.532;13.336;2024-01-15T10:19:10;98726.56;;;10.40;58.62
16595;BME280;8410;52.532;13.336;2024-01-15T10:21:38;98728.16;;;10.48;57.45
16595;BME280;8410;52.532;13.336;2024-01-15T10:24:08;98717.78;;;11.32;57.32
16595;BME280;8410;52.532;13.336;2024-01-15T10:26:36;98723.38;;;9.77;59.01
16595;BME280;8410;52.532;13.336;2024-01-15T10:29:03;98708.69;;;11.53;56.31
16595;BME280;8410;52.532;13.336;2024-01-15T10:31:31;98716.59;;;11.08;57.40
16595;BME280;8410;52.532;13.336;2024-01-15T10:34:10;98714.63;;;10.80;56.86
16595;BME280;8410;52.532;13.336;2024-01-15T10:36:39;98719.88;;;10.76;57.84
16595;BME280;8410;52.532;13.336;2024-01-15T10:39:08;98723.72;;;10.97;57.86
16595;BME280;8410;52.532;13.336;2024-01-15T10:41:36;98725.28;;;10.62;56.64
16595;BME280;8410;52.532;13.336;2024-01-15T10:44:03;98725.41;;;10.98;56.56
16595;BME280;8410;52.532;13.336;2024-01-15T10:46:32;98733.75;;;10.22;58.00
16595;BME280;8410;52.532;13.336;2024-01-15T10:49:01;98719.38;;;10.57;58.50
16595;BME280;8410;52.532;13.336;2024-01-15T10:51:29;98726.34;;;10.52;57.37
16595;BME280;8410;52.532;13.336;2024-01-15T10:53:57;98714.34;;;10.93;56.99
16595;BME280;8410;52.532;13.336;2024-01-15T10:56:27;98725.28;;;11.04;57.33
16595;BME280;8410;52.532;13.336;2024-01-15T10:58:55;98717.13;;;10.84;58.20
16595;BME280;8410;52.532;13.336;2024-01-15T11:01:26;98710.41;;;10.76;57.55
16595;BME280;8410;52.532;13.336;2024-01-15T11:03:56;98719.84;;;10.77;57.83
16595;BME280;8410;52.532;13.336;2024-01-15T11:06:27;98714.00;;;11.10;56.46
16595;BME280;8410;52.532;13.336;2024-01-15T11:08:55;98711.34;;;10.30;57.86
16595;BME280;8410;52.532;13.336;2024-01-15T11:11:23;98731.38;;;10.58;57.62
16595;BME280;8410;52.532;13.336;2024-01-15T11:13:52;98731.56;;;10.49;57.28
16595;BME280;8410;52.532;13.336;2024-01-15T11:16:19;98725.75;;;10.82;57.51
16595;BME280;8410;52.532;13.336;2024-01-15T11:19:02;98722.50;;;11.12;56.82
16595;BME280;8410;52.532;13.336;2024-01-15T11:21:32;98726.81;;;11.11;56.45
16595;BME280;8410;52.532;13.336;2024-01-15T11:24:02;98724.66;;;10.51;58.77
16595;BME280;8410;52.532;13.336;2024-01-15T11:26:35;98733.38;;;10.44;59.09
16595;BME280;8410;52.532;13.336;2024-01-15T11:29:05;98734.91;;;10.94;57.79
16595;BME280;8410;52.532;13.336;2024-01-15T11:32:01;98732.28;;;10.96;57.32
16595;BME280;8410;52.532;13.336;2024-01-15T11:34:54;98732.81;;;10.71;58.21
16595;BME280;8410;52.532;13.336;2024-01-15T11:37:26;98741.09;;;12.32;55.61
16595;BME280;8410;52.532;13.336;2024-01-15T11:39:54;98733.63;;;11.51;57.02
16595;BME280;8410;52.532;13.336;2024-01-15T11:42:22;98725.91;;;11.51;57.25
16595;BME280;8410;52.532;13.336;2024-01-15T11:44:52;98743.66;;;11.63;57.27
16595;BME280;8410;52.532;13.336;2024-01-15T11:47:47;98739.16;;;12.07;56.50
16595;BME280;8410;52.532;13.336;2024-01-15T11:50:23;98742.50;;;11.77;56.05
16595;BME280;8410;52.532;13.336;2024-01-15T11:52:58;98742.78;;;10.88;58.65
16595;BME280;8410;52.532;13.336;2024-01-15T11:55:34;98754.78;;;10.88;60.35
16595;BME280;8410;52.532;13.336;2024-01-15T11:58:08;98753.44;;;11.49;59.24
16595;BME280;8410;52.532;13.336;2024-01-15T12:00:40;98744.25;;;11.00;60.02
16595;BME280;8410;52.532;13.336;2024-01-15T12:03:09;98757.53;;;10.80;60.52
16595;BME280;8410;52.532;13.336;2024-01-15T12:05:37;98759.47;;;10.22;61.38
16595;BME280;8410;52.532;13.336;2024-01-15T12:08:05;98756.56;;;11.24;58.61
16595;BME280;8410;52.532;13.336;2024-01-15T12:10:38;98760.13;;;10.35;60.25
16595;BME280;8410;52.532;13.336;2024-01-15T12:13:10;98756.09;;;10.19;61.47
16595;BME280;8410;52.532;13.336;2024-01-15T12:15:41;98752.56;;;11.11;60.38
16595;BME280;8410;52.532;13.336;2024-01-15T12:18:12;98758.03;;;10.96;59.26
16595;BME280;8410;52.532;13.336;2024-01-15T12:20:41;98765.72;;;9.55;63.92
16595;BME280;8410;52.532;13.336;2024-01-15T12:23:10;98763.53;;;10.35;62.15
16595;BME280;8410;52.532;13.336;2024-01-15T12:25:38;98764.41;;;10.34;60.91
16595;BME280;8410;52.532;13.336;2024-01-15T12:28:06;98757.91;;;10.12;60.96
16595;BME280;8410;52.532;13.336;2024-01-15T12:30:35;98757.00;;;10.64;59.51
16595;BME280;8410;52.532;13.336;2024-01-15T12:33:06;98765.94;;;9.95;61.22
16595;BME280;8410;52.532;13.336;2024-01-15T12:35:36;98765.88;;;9.42;62.14
16595;BME280;8410;52.532;13.336;2024-01-15T12:38:04;98759.06;;;9.94;60.29
16595;BME280;8410;52.532;13.336;2024-01-15T12:40:33;98769.31;;;10.47;61.29
16595;BME280;8410;52.532;13.336;2024-01-15T12:43:03;98784.47;;;9.60;64.62
16595;BME280;8410;52.532;13.336;2024-01-15T12:45:32;98779.72;;;9.32;64.91
16595;BME280;8410;52.532;13.336;2024-01-15T12:47:59;98786.59;;;9.32;64.59
16595;BME280;8410;52.532;13.336;2024-01-15T12:50:29;98783.44;;;9.73;64.65
16595;BME280;8410;52.532;13.336;2024-01-15T12:52:56;98785.78;;;9.85;63.31
16595;BME280;8410;52.532;13.336;2024-01-15T12:55:25;98777.19;;;11.24;61.04
16595;BME280;8410;52.532;13.336;2024-01-15T12:57:53;98787.91;;;8.97;63.63
16595;BME280;8410;52.532;13.336;2024-01-15T13:00:22;98781.75;;;10.22;62.60
16595;BME280;8410;52.532;13.336;2024-01-15T13:02:52;98793.91;;;10.12;62.72
16595;BME280;8410;52.532;13.336;2024-01-15T13:05:20;98802.75;;;9.96;63.50
16595;BME280;8410;52.532;13.336;2024-01-15T13:07:49;98804.44;;;9.97;62.29
16595;BME280;8410;52.532;13.336;2024-01-15T13:10:17;98801.50;;;10.20;62.73
16595;BME280;8410;52.532;13.336;2024-01-15T13:12:44;98805.88;;;10.13;61.61